sensor_id;sensor_type;location;lat;lon;timestamp;P1;durP1;ratioP1;P2;durP2;ratioP2
47669;SDS011;33408;52.062;11.722;2023-12-22T00:01:03;16.38;;;3.40;;
47669;SDS011;33408;52.062;11.722;2023-12-22T00:04:30;16.25;;;3.70;;
47669;SDS011;33408;52.062;11.722;2023-12-22T00:07:55;12.85;;;3.75;;
47669;SDS011;33408;52.062;11.722;2023-12-22T00:11:20;15.43;;;3.55;;
47669;SDS011;33408;52.062;11.722;2023-12-22T00:14:47;14.43;;;3.92;;
47669;SDS011;33408;52.062;11.722;2023-12-22T00:18:12;14.32;;;4.55;;
47669;SDS011;33408;52.062;11.722;2023-12-22T00:21:38;11.45;;;3.60;;
47669;SDS011;33408;52.062;11.722;2023-12-22T00:25:04;12.50;;;3.17;;
47669;SDS011;33408;52.062;11.722;2023-12-22T00:28:29;8.30;;;2.42;;
47669;SDS011;33408;52.062;11.722;2023-12-22T00:31:54;13.40;;;2.85;;
47669;SDS011;33408;52.062;11.722;2023-12-22T00:35:10;11.43;;;3.38;;
47669;SDS011;33408;52.062;11.722;2023-12-22T00:38:36;19.17;;;3.85;;
47669;SDS011;33408;52.062;11.722;2023-12-22T00:42:02;13.50;;;3.25;;
47669;SDS011;33408;52.062;11.722;2023-12-22T00:45:26;11.32;;;2.75;;
47669;SDS011;33408;52.062;11.722;2023-12-22T00:48:51;12.57;;;3.72;;
47669;SDS011;33408;52.062;11.722;2023-12-22T00:52:17;8.55;;;2.70;;
47669;SDS011;33408;52.062;11.722;2023-12-22T00:55:43;12.52;;;2.67;;
47669;SDS011;33408;52.062;11.722;2023-12-22T00:59:08;12.85;;;2.67;;
47669;SDS011;33408;52.062;11.722;2023-12-22T01:02:37;14.38;;;3.25;;
47669;SDS011;33408;52.062;11.722;2023-12-22T01:06:02;14.75;;;3.85;;
47669;SDS011;33408;52.062;11.722;2023-12-22T01:09:27;16.90;;;3.88;;
47669;SDS011;33408;52.062;11.722;2023-12-22T01:12:54;14.95;;;4.50;;
47669;SDS011;33408;52.062;11.722;2023-12-22T01:16:19;14.43;;;4.30;;
47669;SDS011;33408;52.062;11.722;2023-12-22T01:19:44;17.17;;;4.78;;
47669;SDS011;33408;52.062;11.722;2023-12-22T01:23:09;27.35;;;5.15;;
47669;SDS011;33408;52.062;11.722;2023-12-22T01:26:34;19.45;;;4.97;;
47669;SDS011;33408;52.062;11.722;2023-12-22T01:30:00;16.63;;;4.35;;
47669;SDS011;33408;52.062;11.722;2023-12-22T01:33:25;11.77;;;3.00;;
47669;SDS011;33408;52.062;11.722;2023-12-22T01:36:50;19.50;;;5.03;;
47669;SDS011;33408;52.062;11.722;2023-12-22T01:40:16;21.52;;;4.35;;
47669;SDS011;33408;52.062;11.722;2023-12-22T01:43:41;13.85;;;4.03;;
47669;SDS011;33408;52.062;11.722;2023-12-22T01:47:07;20.65;;;4.70;;
47669;SDS011;33408;52.062;11.722;2023-12-22T01:50:33;16.25;;;3.75;;
47669;SDS011;33408;52.062;11.722;2023-12-22T01:53:59;18.42;;;4.80;;
47669;SDS011;33408;52.062;11.722;2023-12-22T01:57:24;10.40;;;3.13;;
47669;SDS011;33408;52.062;11.722;2023-12-22T02:00:50;14.57;;;3.38;;
47669;SDS011;33408;52.062;11.722;2023-12-22T02:04:19;16.23;;;3.30;;
47669;SDS011;33408;52.062;11.722;2023-12-22T02:07:45;14.55;;;3.55;;
47669;SDS011;33408;52.062;11.722;2023-12-22T02:11:12;18.63;;;4.80;;
47669;SDS011;33408;52.062;11.722;2023-12-22T02:14:37;16.83;;;4.07;;
47669;SDS011;33408;52.062;11.722;2023-12-22T02:18:04;16.70;;;3.85;;
47669;SDS011;33408;52.062;11.722;2023-12-22T02:21:37;20.98;;;4.35;;
47669;SDS011;33408;52.062;11.722;2023-12-22T02:25:24;17.23;;;4.07;;
47669;SDS011;33408;52.062;11.722;2023-12-22T02:28:53;18.05;;;4.65;;
47669;SDS011;33408;52.062;11.722;2023-12-22T02:32:25;18.10;;;4.05;;
47669;SDS011;33408;52.062;11.722;2023-12-22T02:35:54;16.13;;;4.45;;
47669;SDS011;33408;52.062;11.722;2023-12-22T02:39:24;17.67;;;3.50;;
47669;SDS011;33408;52.062;11.722;2023-12-22T02:42:51;18.95;;;4.22;;
47669;SDS011;33408;52.062;11.722;2023-12-22T02:46:17;17.30;;;3.42;;
47669;SDS011;33408;52.062;11.722;2023-12-22T02:49:42;19.08;;;4.35;;
47669;SDS011;33408;52.062;11.722;2023-12-22T02:53:07;17.98;;;4.32;;
47669;SDS011;33408;52.062;11.722;2023-12-22T02:56:34;21.35;;;4.85;;
47669;SDS011;33408;52.062;11.722;2023-12-22T02:59:59;16.60;;;4.50;;
47669;SDS011;33408;52.062;11.722;2023-12-22T03:03:24;20.00;;;5.45;;
47669;SDS011;33408;52.062;11.722;2023-12-22T03:06:49;14.93;;;4.40;;
47669;SDS011;33408;52.062;11.722;2023-12-22T03:10:14;14.25;;;3.75;;
47669;SDS011;33408;52.062;11.722;2023-12-22T03:13:41;9.77;;;3.10;;
47669;SDS011;33408;52.062;11.722;2023-12-22T03:17:06;12.60;;;3.28;;
47669;SDS011;33408;52.062;11.722;2023-12-22T03:20:31;11.65;;;3.08;;
47669;SDS011;33408;52.062;11.722;2023-12-22T03:23:56;15.55;;;3.33;;
47669;SDS011;33408;52.062;11.722;2023-12-22T03:27:21;14.05;;;3.50;;
47669;SDS011;33408;52.062;11.722;2023-12-22T03:30:48;9.52;;;2.72;;
47669;SDS011;33408;52.062;11.722;2023-12-22T03:34:13;16.58;;;3.25;;
47669;SDS011;33408;52.062;11.722;2023-12-22T03:37:38;13.00;;;2.80;;
47669;SDS011;33408;52.062;11.722;2023-12-22T03:41:03;13.68;;;2.95;;
47669;SDS011;33408;52.062;11.722;2023-12-22T03:44:29;12.82;;;3.58;;
47669;SDS011;33408;52.062;11.722;2023-12-22T03:47:55;10.90;;;3.65;;
47669;SDS011;33408;52.062;11.722;2023-12-22T03:51:20;11.80;;;3.33;;
47669;SDS011;33408;52.062;11.722;2023-12-22T03:54:45;7.95;;;2.40;;
47669;SDS011;33408;52.062;11.722;2023-12-22T03:58:10;14.55;;;3.47;;
47669;SDS011;33408;52.062;11.722;2023-12-22T04:01:35;14.65;;;3.53;;
47669;SDS011;33408;52.062;11.722;2023-12-22T04:05:02;17.40;;;4.18;;
47669;SDS011;33408;52.062;11.722;2023-12-22T04:08:27;12.73;;;2.88;;
47669;SDS011;33408;52.062;11.722;2023-12-22T04:11:52;13.02;;;3.15;;
47669;SDS011;33408;52.062;11.722;2023-12-22T04:15:17;12.38;;;3.65;;
47669;SDS011;33408;52.062;11.722;2023-12-22T04:18:43;12.70;;;3.60;;
47669;SDS011;33408;52.062;11.722;2023-12-22T04:22:09;11.13;;;2.92;;
47669;SDS011;33408;52.062;11.722;2023-12-22T04:25:33;11.43;;;2.70;;
47669;SDS011;33408;52.062;11.722;2023-12-22T04:28:58;8.30;;;2.38;;
47669;SDS011;33408;52.062;11.722;2023-12-22T04:32:23;9.05;;;2.00;;
47669;SDS011;33408;52.062;11.722;2023-12-22T04:35:48;6.45;;;2.08;;
47669;SDS011;33408;52.062;11.722;2023-12-22T04:39:15;6.03;;;2.08;;
47669;SDS011;33408;52.062;11.722;2023-12-22T04:42:40;8.20;;;2.67;;
47669;SDS011;33408;52.062;11.722;2023-12-22T04:46:05;8.35;;;2.20;;
47669;SDS011;33408;52.062;11.722;2023-12-22T04:49:30;8.05;;;2.10;;
47669;SDS011;33408;52.062;11.722;2023-12-22T04:52:55;8.02;;;1.75;;
47669;SDS011;33408;52.062;11.722;2023-12-22T04:56:22;11.13;;;2.75;;
47669;SDS011;33408;52.062;11.722;2023-12-22T04:59:47;9.05;;;2.05;;
47669;SDS011;33408;52.062;11.722;2023-12-22T05:03:12;13.05;;;2.33;;
47669;SDS011;33408;52.062;11.722;2023-12-22T05:06:37;11.05;;;3.05;;
47669;SDS011;33408;52.062;11.722;2023-12-22T05:10:03;13.13;;;3.05;;
47669;SDS011;33408;52.062;11.722;2023-12-22T05:13:32;12.18;;;2.35;;
47669;SDS011;33408;52.062;11.722;2023-12-22T05:16:57;13.63;;;3.38;;
47669;SDS011;33408;52.062;11.722;2023-12-22T05:20:22;11.20;;;3.13;;
47669;SDS011;33408;52.062;11.722;2023-12-22T05:23:47;11.93;;;3.17;;
47669;SDS011;33408;52.062;11.722;2023-12-22T05:27:13;12.35;;;3.42;;
47669;SDS011;33408;52.062;11.722;2023-12-22T05:30:39;18.48;;;4.32;;
47669;SDS011;33408;52.062;11.722;2023-12-22T05:34:05;16.20;;;4.65;;
47669;SDS011;33408;52.062;11.722;2023-12-22T05:37:30;12.20;;;3.47;;
47669;SDS011;33408;52.062;11.722;2023-12-22T05:40:55;12.65;;;2.65;;
47669;SDS011;33408;52.062;11.722;2023-12-22T05:44:20;12.77;;;3.20;;
47669;SDS011;33408;52.062;11.722;2023-12-22T05:47:47;14.20;;;3.22;;
47669;SDS011;33408;52.062;11.722;2023-12-22T05:51:12;15.70;;;2.75;;
47669;SDS011;33408;52.062;11.722;2023-12-22T05:54:38;9.65;;;3.25;;
47669;SDS011;33408;52.062;11.722;2023-12-22T05:58:03;13.48;;;2.63;;
47669;SDS011;33408;52.062;11.722;2023-12-22T06:01:28;14.35;;;2.97;;
47669;SDS011;33408;52.062;11.722;2023-12-22T06:04:54;12.10;;;2.88;;
47669;SDS011;33408;52.062;11.722;2023-12-22T06:08:20;7.97;;;2.15;;
47669;SDS011;33408;52.062;11.722;2023-12-22T06:11:46;10.73;;;3.35;;
47669;SDS011;33408;52.062;11.722;2023-12-22T06:15:11;7.78;;;2.00;;
47669;SDS011;33408;52.062;11.722;2023-12-22T06:18:39;8.45;;;1.95;;
47669;SDS011;33408;52.062;11.722;2023-12-22T06:22:06;9.43;;;2.47;;
47669;SDS011;33408;52.062;11.722;2023-12-22T06:25:31;9.52;;;2.40;;
47669;SDS011;33408;52.062;11.722;2023-12-22T06:28:56;9.60;;;2.78;;
47669;SDS011;33408;52.062;11.722;2023-12-22T06:32:22;6.75;;;1.90;;
47669;SDS011;33408;52.062;11.722;2023-12-22T06:35:47;5.72;;;2.15;;
47669;SDS011;33408;52.062;11.722;2023-12-22T06:39:13;7.50;;;1.73;;
47669;SDS011;33408;52.062;11.722;2023-12-22T06:42:39;4.68;;;1.35;;
47669;SDS011;33408;52.062;11.722;2023-12-22T06:46:04;4.25;;;1.60;;
47669;SDS011;33408;52.062;11.722;2023-12-22T06:49:38;2.83;;;0.93;;
47669;SDS011;33408;52.062;11.722;2023-12-22T06:53:04;3.33;;;0.98;;
47669;SDS011;33408;52.062;11.722;2023-12-22T06:56:32;2.72;;;0.95;;
47669;SDS011;33408;52.062;11.722;2023-12-22T06:59:57;4.10;;;1.25;;
47669;SDS011;33408;52.062;11.722;2023-12-22T07:03:22;5.47;;;1.30;;
47669;SDS011;33408;52.062;11.722;2023-12-22T07:06:47;8.88;;;1.60;;
47669;SDS011;33408;52.062;11.722;2023-12-22T07:10:12;3.22;;;1.33;;
47669;SDS011;33408;52.062;11.722;2023-12-22T07:13:39;8.45;;;1.75;;
47669;SDS011;33408;52.062;11.722;2023-12-22T07:17:04;8.50;;;1.92;;
47669;SDS011;33408;52.062;11.722;2023-12-22T07:20:30;4.97;;;1.90;;
47669;SDS011;33408;52.062;11.722;2023-12-22T07:23:55;14.27;;;2.60;;
47669;SDS011;33408;52.062;11.722;2023-12-22T07:27:20;9.55;;;1.67;;
47669;SDS011;33408;52.062;11.722;2023-12-22T07:30:47;8.75;;;2.20;;
47669;SDS011;33408;52.062;11.722;2023-12-22T07:34:12;6.75;;;1.70;;
47669;SDS011;33408;52.062;11.722;2023-12-22T07:37:37;14.23;;;3.35;;
47669;SDS011;33408;52.062;11.722;2023-12-22T07:41:02;12.90;;;3.35;;
47669;SDS011;33408;52.062;11.722;2023-12-22T07:44:27;9.93;;;2.38;;
47669;SDS011;33408;52.062;11.722;2023-12-22T07:47:55;8.45;;;2.15;;
47669;SDS011;33408;52.062;11.722;2023-12-22T07:51:20;8.85;;;2.03;;
47669;SDS011;33408;52.062;11.722;2023-12-22T07:54:45;4.70;;;1.52;;
47669;SDS011;33408;52.062;11.722;2023-12-22T07:58:10;6.07;;;1.30;;
47669;SDS011;33408;52.062;11.722;2023-12-22T08:01:35;4.75;;;1.73;;
47669;SDS011;33408;52.062;11.722;2023-12-22T08:05:01;6.72;;;1.75;;
47669;SDS011;33408;52.062;11.722;2023-12-22T08:08:27;4.45;;;1.60;;
47669;SDS011;33408;52.062;11.722;2023-12-22T08:11:52;5.28;;;1.27;;
47669;SDS011;33408;52.062;11.722;2023-12-22T08:15:17;6.00;;;1.45;;
47669;SDS011;33408;52.062;11.722;2023-12-22T08:18:42;6.38;;;1.60;;
47669;SDS011;33408;52.062;11.722;2023-12-22T08:22:09;5.70;;;1.92;;
47669;SDS011;33408;52.062;11.722;2023-12-22T08:25:35;7.20;;;1.80;;
47669;SDS011;33408;52.062;11.722;2023-12-22T08:29:00;8.23;;;2.50;;
47669;SDS011;33408;52.062;11.722;2023-12-22T08:32:25;13.07;;;2.38;;
47669;SDS011;33408;52.062;11.722;2023-12-22T08:35:50;12.60;;;2.97;;
47669;SDS011;33408;52.062;11.722;2023-12-22T08:39:16;8.75;;;2.83;;
47669;SDS011;33408;52.062;11.722;2023-12-22T08:42:41;10.63;;;2.13;;
47669;SDS011;33408;52.062;11.722;2023-12-22T08:46:07;10.73;;;2.50;;
47669;SDS011;33408;52.062;11.722;2023-12-22T08:49:32;6.43;;;1.75;;
47669;SDS011;33408;52.062;11.722;2023-12-22T08:52:57;8.82;;;2.08;;
47669;SDS011;33408;52.062;11.722;2023-12-22T08:56:24;5.60;;;1.65;;
47669;SDS011;33408;52.062;11.722;2023-12-22T08:59:49;6.43;;;1.92;;
47669;SDS011;33408;52.062;11.722;2023-12-22T09:03:14;7.28;;;2.33;;
47669;SDS011;33408;52.062;11.722;2023-12-22T09:06:41;10.00;;;2.67;;
47669;SDS011;33408;52.062;11.722;2023-12-22T09:10:06;11.85;;;2.63;;
47669;SDS011;33408;52.062;11.722;2023-12-22T09:13:32;7.28;;;2.58;;
47669;SDS011;33408;52.062;11.722;2023-12-22T09:16:58;10.93;;;2.38;;
47669;SDS011;33408;52.062;11.722;2023-12-22T09:20:23;8.40;;;2.28;;
47669;SDS011;33408;52.062;11.722;2023-12-22T09:23:48;7.65;;;2.28;;
47669;SDS011;33408;52.062;11.722;2023-12-22T09:27:13;11.18;;;2.38;;
47669;SDS011;33408;52.062;11.722;2023-12-22T09:30:40;15.77;;;2.90;;
47669;SDS011;33408;52.062;11.722;2023-12-22T09:34:06;14.55;;;3.00;;
47669;SDS011;33408;52.062;11.722;2023-12-22T09:37:32;12.95;;;2.53;;
47669;SDS011;33408;52.062;11.722;2023-12-22T09:40:57;11.63;;;3.08;;
47669;SDS011;33408;52.062;11.722;2023-12-22T09:44:22;10.43;;;2.85;;
47669;SDS011;33408;52.062;11.722;2023-12-22T09:47:52;12.35;;;2.90;;
47669;SDS011;33408;52.062;11.722;2023-12-22T09:51:20;13.82;;;3.17;;
47669;SDS011;33408;52.062;11.722;2023-12-22T09:54:46;10.98;;;3.15;;
47669;SDS011;33408;52.062;11.722;2023-12-22T09:58:13;11.32;;;2.80;;
47669;SDS011;33408;52.062;11.722;2023-12-22T10:01:40;15.93;;;3.88;;
47669;SDS011;33408;52.062;11.722;2023-12-22T10:05:09;14.05;;;2.22;;
47669;SDS011;33408;52.062;11.722;2023-12-22T10:08:34;12.55;;;3.28;;
47669;SDS011;33408;52.062;11.722;2023-12-22T10:12:01;14.13;;;4.05;;
47669;SDS011;33408;52.062;11.722;2023-12-22T10:15:32;20.13;;;3.60;;
47669;SDS011;33408;52.062;11.722;2023-12-22T10:18:58;14.23;;;3.30;;
47669;SDS011;33408;52.062;11.722;2023-12-22T10:22:25;24.95;;;4.18;;
47669;SDS011;33408;52.062;11.722;2023-12-22T10:25:15;19.63;;;4.22;;
47669;SDS011;33408;52.062;11.722;2023-12-22T10:28:41;19.73;;;4.38;;
47669;SDS011;33408;52.062;11.722;2023-12-22T10:32:07;22.15;;;4.45;;
47669;SDS011;33408;52.062;11.722;2023-12-22T10:35:32;20.02;;;4.68;;
47669;SDS011;33408;52.062;11.722;2023-12-22T10:38:59;22.98;;;4.82;;
47669;SDS011;33408;52.062;11.722;2023-12-22T10:42:24;22.52;;;5.10;;
47669;SDS011;33408;52.062;11.722;2023-12-22T10:45:51;13.88;;;3.67;;
47669;SDS011;33408;52.062;11.722;2023-12-22T10:49:16;15.55;;;3.50;;
47669;SDS011;33408;52.062;11.722;2023-12-22T10:52:48;13.85;;;3.92;;
47669;SDS011;33408;52.062;11.722;2023-12-22T10:56:14;23.55;;;4.63;;
47669;SDS011;33408;52.062;11.722;2023-12-22T10:59:44;17.80;;;5.03;;
47669;SDS011;33408;52.062;11.722;2023-12-22T11:03:12;15.80;;;3.83;;
47669;SDS011;33408;52.062;11.722;2023-12-22T11:06:40;10.20;;;2.85;;
47669;SDS011;33408;52.062;11.722;2023-12-22T11:10:08;6.07;;;1.85;;
47669;SDS011;33408;52.062;11.722;2023-12-22T11:13:41;7.53;;;1.60;;
47669;SDS011;33408;52.062;11.722;2023-12-22T11:17:08;6.22;;;1.98;;
47669;SDS011;33408;52.062;11.722;2023-12-22T11:20:34;5.18;;;1.45;;
47669;SDS011;33408;52.062;11.722;2023-12-22T11:24:01;4.03;;;1.30;;
47669;SDS011;33408;52.062;11.722;2023-12-22T11:27:28;6.10;;;1.10;;
47669;SDS011;33408;52.062;11.722;2023-12-22T11:30:55;5.82;;;2.00;;
47669;SDS011;33408;52.062;11.722;2023-12-22T11:34:21;4.30;;;1.40;;
47669;SDS011;33408;52.062;11.722;2023-12-22T11:37:47;4.72;;;1.50;;
47669;SDS011;33408;52.062;11.722;2023-12-22T11:41:15;4.72;;;1.75;;
47669;SDS011;33408;52.062;11.722;2023-12-22T11:44:44;4.88;;;1.40;;
47669;SDS011;33408;52.062;11.722;2023-12-22T11:48:11;5.05;;;1.55;;
47669;SDS011;33408;52.062;11.722;2023-12-22T11:51:36;6.05;;;1.70;;
47669;SDS011;33408;52.062;11.722;2023-12-22T11:55:02;5.28;;;1.67;;
47669;SDS011;33408;52.062;11.722;2023-12-22T11:58:32;5.47;;;1.83;;
47669;SDS011;33408;52.062;11.722;2023-12-22T12:01:59;4.95;;;1.45;;
47669;SDS011;33408;52.062;11.722;2023-12-22T12:05:33;4.25;;;1.52;;
47669;SDS011;33408;52.062;11.722;2023-12-22T12:09:03;3.92;;;1.33;;
47669;SDS011;33408;52.062;11.722;2023-12-22T12:12:28;4.35;;;1.30;;
47669;SDS011;33408;52.062;11.722;2023-12-22T12:15:50;3.80;;;1.15;;
47669;SDS011;33408;52.062;11.722;2023-12-22T12:18:21;6.40;;;1.85;;
47669;SDS011;33408;52.062;11.722;2023-12-22T12:21:48;6.10;;;2.17;;
47669;SDS011;33408;52.062;11.722;2023-12-22T12:25:13;5.95;;;1.67;;
47669;SDS011;33408;52.062;11.722;2023-12-22T12:28:40;4.35;;;1.75;;
47669;SDS011;33408;52.062;11.722;2023-12-22T12:32:09;9.15;;;2.08;;
47669;SDS011;33408;52.062;11.722;2023-12-22T12:35:39;9.57;;;1.83;;
47669;SDS011;33408;52.062;11.722;2023-12-22T12:39:07;9.10;;;1.73;;
47669;SDS011;33408;52.062;11.722;2023-12-22T12:42:34;7.30;;;1.75;;
47669;SDS011;33408;52.062;11.722;2023-12-22T12:46:04;9.75;;;2.13;;
47669;SDS011;33408;52.062;11.722;2023-12-22T12:49:37;6.05;;;1.40;;
47669;SDS011;33408;52.062;11.722;2023-12-22T12:53:02;5.95;;;1.65;;
47669;SDS011;33408;52.062;11.722;2023-12-22T12:56:29;6.00;;;1.48;;
47669;SDS011;33408;52.062;11.722;2023-12-22T12:59:54;6.20;;;1.65;;
47669;SDS011;33408;52.062;11.722;2023-12-22T13:03:23;4.20;;;1.17;;
47669;SDS011;33408;52.062;11.722;2023-12-22T13:06:48;2.88;;;1.52;;
47669;SDS011;33408;52.062;11.722;2023-12-22T13:10:20;3.88;;;1.20;;
47669;SDS011;33408;52.062;11.722;2023-12-22T13:13:48;4.60;;;1.23;;
47669;SDS011;33408;52.062;11.722;2023-12-22T13:17:13;5.80;;;1.65;;
47669;SDS011;33408;52.062;11.722;2023-12-22T13:20:38;4.65;;;1.30;;
47669;SDS011;33408;52.062;11.722;2023-12-22T13:24:10;5.63;;;1.48;;
47669;SDS011;33408;52.062;11.722;2023-12-22T13:27:45;6.53;;;1.75;;
47669;SDS011;33408;52.062;11.722;2023-12-22T13:34:46;5.63;;;1.48;;
47669;SDS011;33408;52.062;11.722;2023-12-22T13:38:12;3.83;;;1.40;;
47669;SDS011;33408;52.062;11.722;2023-12-22T13:41:38;5.45;;;1.80;;
47669;SDS011;33408;52.062;11.722;2023-12-22T13:45:04;8.75;;;1.70;;
47669;SDS011;33408;52.062;11.722;2023-12-22T13:48:31;10.20;;;1.80;;
47669;SDS011;33408;52.062;11.722;2023-12-22T13:51:59;7.22;;;1.80;;
47669;SDS011;33408;52.062;11.722;2023-12-22T13:55:33;8.45;;;1.77;;
47669;SDS011;33408;52.062;11.722;2023-12-22T13:59:00;7.25;;;1.52;;
47669;SDS011;33408;52.062;11.722;2023-12-22T14:02:25;6.45;;;1.73;;
47669;SDS011;33408;52.062;11.722;2023-12-22T14:05:53;12.45;;;2.10;;
47669;SDS011;33408;52.062;11.722;2023-12-22T14:09:18;6.80;;;1.83;;
47669;SDS011;33408;52.062;11.722;2023-12-22T14:12:43;2.92;;;1.35;;
47669;SDS011;33408;52.062;11.722;2023-12-22T14:16:09;7.13;;;1.77;;
47669;SDS011;33408;52.062;11.722;2023-12-22T14:19:34;6.22;;;1.70;;
47669;SDS011;33408;52.062;11.722;2023-12-22T14:23:00;9.07;;;2.00;;
47669;SDS011;33408;52.062;11.722;2023-12-22T14:26:25;12.02;;;2.67;;
47669;SDS011;33408;52.062;11.722;2023-12-22T14:29:51;6.53;;;2.00;;
47669;SDS011;33408;52.062;11.722;2023-12-22T14:33:16;10.90;;;2.20;;
47669;SDS011;33408;52.062;11.722;2023-12-22T14:36:42;10.00;;;2.33;;
47669;SDS011;33408;52.062;11.722;2023-12-22T14:40:10;6.88;;;1.92;;
47669;SDS011;33408;52.062;11.722;2023-12-22T14:43:35;7.25;;;2.15;;
47669;SDS011;33408;52.062;11.722;2023-12-22T14:47:00;6.50;;;1.77;;
47669;SDS011;33408;52.062;11.722;2023-12-22T14:50:25;6.78;;;2.10;;
47669;SDS011;33408;52.062;11.722;2023-12-22T14:53:51;10.07;;;1.65;;
47669;SDS011;33408;52.062;11.722;2023-12-22T14:56:18;6.07;;;2.10;;
47669;SDS011;33408;52.062;11.722;2023-12-22T14:58:45;9.38;;;2.75;;
47669;SDS011;33408;52.062;11.722;2023-12-22T15:01:12;6.72;;;2.15;;
47669;SDS011;33408;52.062;11.722;2023-12-22T15:03:39;5.43;;;1.70;;
47669;SDS011;33408;52.062;11.722;2023-12-22T15:06:06;3.72;;;1.10;;
47669;SDS011;33408;52.062;11.722;2023-12-22T15:08:32;12.60;;;1.20;;
47669;SDS011;33408;52.062;11.722;2023-12-22T15:11:30;1.95;;;0.90;;
47669;SDS011;33408;52.062;11.722;2023-12-22T15:13:56;5.10;;;0.80;;
47669;SDS011;33408;52.062;11.722;2023-12-22T15:17:22;1.33;;;0.80;;
47669;SDS011;33408;52.062;11.722;2023-12-22T15:20:47;6.78;;;1.77;;
47669;SDS011;33408;52.062;11.722;2023-12-22T15:24:12;2.83;;;1.08;;
47669;SDS011;33408;52.062;11.722;2023-12-22T15:27:38;5.88;;;1.42;;
47669;SDS011;33408;52.062;11.722;2023-12-22T15:31:07;5.85;;;1.38;;
47669;SDS011;33408;52.062;11.722;2023-12-22T15:34:32;3.80;;;0.98;;
47669;SDS011;33408;52.062;11.722;2023-12-22T15:37:58;5.32;;;1.40;;
47669;SDS011;33408;52.062;11.722;2023-12-22T15:41:23;4.55;;;1.00;;
47669;SDS011;33408;52.062;11.722;2023-12-22T15:44:49;1.65;;;0.82;;
47669;SDS011;33408;52.062;11.722;2023-12-22T15:48:14;1.55;;;1.08;;
47669;SDS011;33408;52.062;11.722;2023-12-22T15:51:39;2.40;;;1.05;;
47669;SDS011;33408;52.062;11.722;2023-12-22T15:55:05;1.70;;;0.95;;
47669;SDS011;33408;52.062;11.722;2023-12-22T15:58:32;1.38;;;0.82;;
47669;SDS011;33408;52.062;11.722;2023-12-22T16:01:59;3.60;;;0.80;;
47669;SDS011;33408;52.062;11.722;2023-12-22T16:05:24;3.30;;;1.15;;
47669;SDS011;33408;52.062;11.722;2023-12-22T16:08:49;3.90;;;1.42;;
47669;SDS011;33408;52.062;11.722;2023-12-22T16:12:14;5.10;;;1.00;;
47669;SDS011;33408;52.062;11.722;2023-12-22T16:15:40;2.85;;;1.10;;
47669;SDS011;33408;52.062;11.722;2023-12-22T16:19:06;2.08;;;0.82;;
47669;SDS011;33408;52.062;11.722;2023-12-22T16:22:34;1.50;;;1.15;;
47669;SDS011;33408;52.062;11.722;2023-12-22T16:25:59;2.85;;;0.95;;
47669;SDS011;33408;52.062;11.722;2023-12-22T16:29:24;0.95;;;0.88;;
47669;SDS011;33408;52.062;11.722;2023-12-22T16:32:49;4.70;;;1.10;;
47669;SDS011;33408;52.062;11.722;2023-12-22T16:36:15;1.85;;;0.90;;
47669;SDS011;33408;52.062;11.722;2023-12-22T16:39:47;1.10;;;0.65;;
47669;SDS011;33408;52.062;11.722;2023-12-22T16:43:12;1.88;;;0.98;;
47669;SDS011;33408;52.062;11.722;2023-12-22T16:46:40;1.17;;;0.80;;
47669;SDS011;33408;52.062;11.722;2023-12-22T16:50:05;4.85;;;1.02;;
47669;SDS011;33408;52.062;11.722;2023-12-22T16:53:32;1.55;;;1.00;;
47669;SDS011;33408;52.062;11.722;2023-12-22T16:56:57;5.53;;;1.00;;
47669;SDS011;33408;52.062;11.722;2023-12-22T17:00:22;3.28;;;0.98;;
47669;SDS011;33408;52.062;11.722;2023-12-22T17:03:47;1.73;;;1.10;;
47669;SDS011;33408;52.062;11.722;2023-12-22T17:07:13;2.35;;;0.90;;
47669;SDS011;33408;52.062;11.722;2023-12-22T17:10:39;1.77;;;0.90;;
47669;SDS011;33408;52.062;11.722;2023-12-22T17:14:05;2.85;;;1.13;;
47669;SDS011;33408;52.062;11.722;2023-12-22T17:17:31;4.47;;;1.08;;
47669;SDS011;33408;52.062;11.722;2023-12-22T17:20:56;2.05;;;1.10;;
47669;SDS011;33408;52.062;11.722;2023-12-22T17:24:24;2.20;;;1.30;;
47669;SDS011;33408;52.062;11.722;2023-12-22T17:27:51;3.65;;;1.30;;
47669;SDS011;33408;52.062;11.722;2023-12-22T17:31:16;4.05;;;1.23;;
47669;SDS011;33408;52.062;11.722;2023-12-22T17:34:42;4.50;;;1.25;;
47669;SDS011;33408;52.062;11.722;2023-12-22T17:38:09;1.48;;;1.10;;
47669;SDS011;33408;52.062;11.722;2023-12-22T17:41:35;2.70;;;1.10;;
47669;SDS011;33408;52.062;11.722;2023-12-22T17:45:02;3.63;;;1.50;;
47669;SDS011;33408;52.062;11.722;2023-12-22T17:48:27;4.55;;;1.52;;
47669;SDS011;33408;52.062;11.722;2023-12-22T17:51:52;3.88;;;1.38;;
47669;SDS011;33408;52.062;11.722;2023-12-22T17:55:17;2.20;;;1.20;;
47669;SDS011;33408;52.062;11.722;2023-12-22T17:58:42;3.22;;;1.30;;
47669;SDS011;33408;52.062;11.722;2023-12-22T18:02:08;2.42;;;1.23;;
47669;SDS011;33408;52.062;11.722;2023-12-22T18:05:34;4.63;;;1.40;;
47669;SDS011;33408;52.062;11.722;2023-12-22T18:08:59;3.42;;;1.70;;
47669;SDS011;33408;52.062;11.722;2023-12-22T18:12:25;2.92;;;1.60;;
47669;SDS011;33408;52.062;11.722;2023-12-22T18:15:50;5.95;;;2.00;;
47669;SDS011;33408;52.062;11.722;2023-12-22T18:19:19;4.80;;;2.55;;
47669;SDS011;33408;52.062;11.722;2023-12-22T18:22:46;5.78;;;2.38;;
47669;SDS011;33408;52.062;11.722;2023-12-22T18:26:12;5.07;;;2.55;;
47669;SDS011;33408;52.062;11.722;2023-12-22T18:29:37;5.75;;;2.25;;
47669;SDS011;33408;52.062;11.722;2023-12-22T18:33:02;5.78;;;2.05;;
47669;SDS011;33408;52.062;11.722;2023-12-22T18:36:30;6.57;;;2.20;;
47669;SDS011;33408;52.062;11.722;2023-12-22T18:39:55;4.72;;;2.15;;
47669;SDS011;33408;52.062;11.722;2023-12-22T18:43:20;5.68;;;2.75;;
47669;SDS011;33408;52.062;11.722;2023-12-22T18:46:45;6.32;;;2.47;;
47669;SDS011;33408;52.062;11.722;2023-12-22T18:50:11;7.85;;;2.60;;
47669;SDS011;33408;52.062;11.722;2023-12-22T18:53:39;6.38;;;2.10;;
47669;SDS011;33408;52.062;11.722;2023-12-22T18:57:05;6.60;;;2.15;;
47669;SDS011;33408;52.062;11.722;2023-12-22T19:00:30;5.05;;;2.05;;
47669;SDS011;33408;52.062;11.722;2023-12-22T19:03:55;6.70;;;2.47;;
47669;SDS011;33408;52.062;11.722;2023-12-22T19:07:21;6.30;;;2.13;;
47669;SDS011;33408;52.062;11.722;2023-12-22T19:10:48;4.45;;;2.08;;
47669;SDS011;33408;52.062;11.722;2023-12-22T19:14:13;4.28;;;1.98;;
47669;SDS011;33408;52.062;11.722;2023-12-22T19:17:40;3.42;;;1.63;;
47669;SDS011;33408;52.062;11.722;2023-12-22T19:21:05;4.88;;;1.80;;
47669;SDS011;33408;52.062;11.722;2023-12-22T19:24:31;7.07;;;2.25;;
47669;SDS011;33408;52.062;11.722;2023-12-22T19:27:57;4.72;;;1.65;;
47669;SDS011;33408;52.062;11.722;2023-12-22T19:31:22;5.70;;;1.67;;
47669;SDS011;33408;52.062;11.722;2023-12-22T19:34:48;4.03;;;1.60;;
47669;SDS011;33408;52.062;11.722;2023-12-22T19:38:13;2.47;;;1.20;;
47669;SDS011;33408;52.062;11.722;2023-12-22T19:41:38;2.05;;;1.08;;
47669;SDS011;33408;52.062;11.722;2023-12-22T19:45:05;2.10;;;1.13;;
47669;SDS011;33408;52.062;11.722;2023-12-22T19:48:31;3.67;;;1.38;;
47669;SDS011;33408;52.062;11.722;2023-12-22T19:52:00;2.25;;;1.02;;
47669;SDS011;33408;52.062;11.722;2023-12-22T19:55:25;2.85;;;1.20;;
47669;SDS011;33408;52.062;11.722;2023-12-22T19:58:51;1.27;;;0.80;;
47669;SDS011;33408;52.062;11.722;2023-12-22T20:02:17;3.08;;;1.00;;
47669;SDS011;33408;52.062;11.722;2023-12-22T20:05:42;1.33;;;0.75;;
47669;SDS011;33408;52.062;11.722;2023-12-22T20:09:09;1.60;;;1.00;;